Time;durP1;ratioP1;P1;durP2;ratioP2;P2;SDS_P1;SDS_P2;PMS_P1;PMS_P2;Temp;Humidity;BMP_temperature;BMP_pressure;BME280_temperature;BME280_humidity;BME280_pressure;Samples;Min_cycle;Max_cycle;Signal;HPM_P1;HPM_P2
2022/01/01 00:02:04;;;;;;;28.92;11.48;;;14.80;99.90;;;;;;5092147;28;20034;-81
2022/01/01 00:04:30;;;;;;;31.35;11.82;;;14.70;99.90;;;;;;5082852;28;20107;-81
2022/01/01 00:06:56;;;;;;;26.95;11.25;;;14.80;99.90;;;;;;5080867;28;20030;-86
2022/01/01 00:09:22;;;;;;;27.67;10.68;;;14.80;99.90;;;;;;5080493;28;20024;-86
2022/01/01 00:11:47;;;;;;;25.27;10.63;;;14.70;99.90;;;;;;5091609;28;20558;-86
2022/01/01 00:14:13;;;;;;;34.03;12.23;;;14.80;99.90;;;;;;5090373;28;20020;-87
2022/01/01 00:16:39;;;;;;;20.67;11.52;;;14.80;99.90;;;;;;5073691;28;20055;-87
2022/01/01 00:19:05;;;;;;;31.52;12.40;;;14.80;99.90;;;;;;5078225;28;20067;-86
2022/01/01 00:21:31;;;;;;;26.40;12.73;;;14.80;99.90;;;;;;5072226;28;20017;-87
2022/01/01 00:23:56;;;;;;;34.40;14.98;;;14.70;99.90;;;;;;5072258;28;20488;-87
2022/01/01 00:26:22;;;;;;;34.95;14.10;;;14.80;99.90;;;;;;5072659;28;20052;-86
2022/01/01 00:28:48;;;;;;;32.80;14.77;;;14.80;99.90;;;;;;5071787;28;20036;-87
2022/01/01 00:31:14;;;;;;;29.10;13.68;;;14.70;99.90;;;;;;5072460;28;20033;-87
2022/01/01 00:33:39;;;;;;;32.60;14.23;;;14.70;99.90;;;;;;5071937;28;20492;-88
2022/01/01 00:36:06;;;;;;;28.95;13.77;;;14.80;99.90;;;;;;5076839;28;20039;-87
2022/01/01 00:38:31;;;;;;;39.08;13.65;;;14.80;99.90;;;;;;5072675;28;20070;-87
2022/01/01 00:40:57;;;;;;;33.45;12.95;;;14.80;99.90;;;;;;5073206;28;20028;-87
2022/01/01 00:43:24;;;;;;;25.95;12.52;;;14.80;99.90;;;;;;5082192;28;20054;-84
2022/01/01 00:45:50;;;;;;;28.63;12.50;;;14.80;99.90;;;;;;5077356;28;20052;-86
2022/01/01 00:48:16;;;;;;;30.75;12.43;;;14.80;99.90;;;;;;5073266;28;20017;-87
2022/01/01 00:50:41;;;;;;;30.17;12.27;;;14.80;99.90;;;;;;5075742;28;20086;-87
2022/01/01 00:53:07;;;;;;;25.05;12.02;;;14.80;99.90;;;;;;5092457;28;20032;-86
2022/01/01 00:55:33;;;;;;;23.60;11.07;;;14.80;99.90;;;;;;5091722;28;20020;-87
2022/01/01 00:58:00;;;;;;;30.40;12.18;;;14.80;99.90;;;;;;5092048;28;20117;-86
2022/01/01 01:00:25;;;;;;;28.08;12.05;;;14.90;99.90;;;;;;5091509;28;20740;-85
2022/01/01 01:02:51;;;;;;;23.95;12.75;;;14.90;99.90;;;;;;5091982;28;20031;-86
2022/01/01 01:05:16;;;;;;;27.27;12.65;;;14.80;99.90;;;;;;5092716;28;20047;-86
2022/01/01 01:07:42;;;;;;;32.35;11.45;;;14.90;99.90;;;;;;5092365;28;20039;-86
2022/01/01 01:10:08;;;;;;;32.08;11.80;;;14.80;99.90;;;;;;5090958;28;20044;-86
2022/01/01 01:12:40;;;;;;;27.70;12.48;;;14.80;99.90;;;;;;5092752;28;20012;-85
2022/01/01 01:15:07;;;;;;;34.25;12.10;;;14.80;99.90;;;;;;5082443;28;20032;-87
2022/01/01 01:17:32;;;;;;;24.45;12.95;;;14.70;99.90;;;;;;5071425;28;20013;-86
2022/01/01 01:19:58;;;;;;;26.95;11.73;;;14.80;99.90;;;;;;5079168;28;20032;-87
2022/01/01 01:22:26;;;;;;;24.33;11.20;;;14.80;99.90;;;;;;5091638;28;20089;-87
2022/01/01 01:24:53;;;;;;;27.33;13.00;;;14.90;99.90;;;;;;5091870;28;20055;-87
2022/01/01 01:27:19;;;;;;;26.20;12.55;;;14.90;99.90;;;;;;5092981;28;20073;-83
2022/01/01 01:29:45;;;;;;;30.77;13.60;;;14.90;99.90;;;;;;5072184;28;20032;-86
2022/01/01 01:32:11;;;;;;;29.33;12.63;;;14.90;99.90;;;;;;5073563;28;20033;-87
2022/01/01 01:34:37;;;;;;;26.23;12.85;;;14.90;99.90;;;;;;5089428;28;20042;-87
2022/01/01 01:37:03;;;;;;;28.13;12.05;;;14.90;99.90;;;;;;5096229;28;20420;-86
2022/01/01 01:39:29;;;;;;;25.55;11.73;;;14.80;99.90;;;;;;5095865;28;20027;-85
2022/01/01 01:41:55;;;;;;;23.50;11.38;;;14.80;99.90;;;;;;5096037;28;20031;-86
2022/01/01 01:44:33;;;;;;;26.60;11.55;;;14.70;99.90;;;;;;5095415;28;20027;-85
2022/01/01 01:47:02;;;;;;;23.77;10.23;;;14.80;99.90;;;;;;5090275;28;20028;-85
2022/01/01 01:49:29;;;;;;;23.40;12.60;;;14.80;99.90;;;;;;5074655;28;20027;-86
2022/01/01 01:52:00;;;;;;;22.23;10.85;;;14.90;99.90;;;;;;5075453;28;20469;-85
2022/01/01 01:54:26;;;;;;;26.48;11.57;;;14.90;99.90;;;;;;5075312;28;20400;-84
2022/01/01 01:56:52;;;;;;;27.40;12.32;;;14.90;99.90;;;;;;5086485;28;20028;-87
2022/01/01 01:59:19;;;;;;;26.88;10.93;;;14.80;99.90;;;;;;5086738;28;20016;-87
2022/01/01 02:01:45;;;;;;;23.92;11.73;;;14.80;99.90;;;;;;5085713;28;20420;-87
2022/01/01 02:04:10;;;;;;;30.00;13.02;;;14.70;99.90;;;;;;5095045;28;20036;-88
2022/01/01 02:06:36;;;;;;;24.35;11.02;;;14.70;99.90;;;;;;5093722;28;20078;-87
2022/01/01 02:09:02;;;;;;;22.58;11.32;;;14.70;99.90;;;;;;5096362;28;20450;-87
2022/01/01 02:11:30;;;;;;;25.15;10.75;;;14.70;99.90;;;;;;5095986;28;20098;-87
2022/01/01 02:18:53;;;;;;;24.63;10.82;;;14.70;99.90;;;;;;5095763;28;20024;-87
2022/01/01 02:21:20;;;;;;;28.13;11.85;;;14.80;99.90;;;;;;5096041;28;20020;-88
2022/01/01 02:23:47;;;;;;;23.13;10.52;;;14.70;99.90;;;;;;5094302;28;20028;-87
2022/01/01 02:26:16;;;;;;;24.08;9.93;;;14.70;99.90;;;;;;5093455;28;20026;-87
2022/01/01 02:28:45;;;;;;;25.10;10.10;;;14.70;99.90;;;;;;5075509;28;20082;-87
2022/01/01 02:31:10;;;;;;;22.55;10.38;;;14.70;99.90;;;;;;5075325;28;20051;-87
2022/01/01 02:33:38;;;;;;;21.13;10.90;;;14.70;99.90;;;;;;5082324;28;20024;-87
2022/01/01 02:36:05;;;;;;;30.17;12.32;;;14.70;99.90;;;;;;5095533;28;20468;-88
2022/01/01 02:38:35;;;;;;;27.23;11.02;;;14.60;99.90;;;;;;5095646;28;20031;-87
2022/01/01 02:41:03;;;;;;;24.63;11.00;;;14.70;99.90;;;;;;5095934;28;20069;-88
2022/01/01 02:43:31;;;;;;;17.98;10.85;;;14.60;99.90;;;;;;5094996;28;20056;-87
2022/01/01 02:45:58;;;;;;;21.02;10.20;;;14.60;99.90;;;;;;5095396;28;20031;-87
2022/01/01 02:48:25;;;;;;;20.52;11.05;;;14.60;99.90;;;;;;5082736;28;20039;-87
2022/01/01 02:50:53;;;;;;;22.88;10.45;;;14.60;99.90;;;;;;5074723;28;20055;-87
2022/01/01 02:53:20;;;;;;;23.17;10.82;;;14.60;99.90;;;;;;5074984;28;20075;-87
2022/01/01 02:55:46;;;;;;;19.95;10.10;;;14.70;99.90;;;;;;5080060;28;20028;-86
2022/01/01 02:58:13;;;;;;;19.52;10.25;;;14.60;99.90;;;;;;5094645;28;20172;-87
2022/01/01 03:00:40;;;;;;;27.45;10.88;;;14.60;99.90;;;;;;5094462;28;20389;-80
2022/01/01 03:03:07;;;;;;;23.27;9.10;;;14.60;99.90;;;;;;5091186;28;20035;-87
2022/01/01 03:05:35;;;;;;;20.90;10.23;;;14.60;99.90;;;;;;5074905;28;20035;-87
2022/01/01 03:08:02;;;;;;;23.23;10.98;;;14.60;99.90;;;;;;5074587;28;20433;-87
2022/01/01 03:10:28;;;;;;;21.88;10.23;;;14.60;99.90;;;;;;5074789;28;20036;-87
2022/01/01 03:12:54;;;;;;;28.90;10.93;;;14.60;99.90;;;;;;5074617;28;20104;-87
2022/01/01 03:15:20;;;;;;;21.55;9.15;;;14.60;99.90;;;;;;5090700;28;20539;-87
2022/01/01 03:17:45;;;;;;;23.48;9.32;;;14.60;99.90;;;;;;5094453;28;20063;-86
2022/01/01 03:20:12;;;;;;;26.30;10.00;;;14.60;99.90;;;;;;5085286;28;20460;-87
2022/01/01 03:22:38;;;;;;;24.13;9.18;;;14.60;99.90;;;;;;5083299;28;20031;-87
2022/01/01 03:25:04;;;;;;;18.00;8.65;;;14.60;99.90;;;;;;5081333;28;20074;-87
2022/01/01 03:27:30;;;;;;;18.23;9.20;;;14.60;99.90;;;;;;5073413;28;20047;-86
2022/01/01 03:29:55;;;;;;;22.33;10.13;;;14.60;99.90;;;;;;5074191;28;20046;-86
2022/01/01 03:32:21;;;;;;;18.98;9.07;;;14.60;99.90;;;;;;5073648;28;20078;-86
2022/01/01 03:34:47;;;;;;;20.90;10.40;;;14.60;99.90;;;;;;5073338;28;20032;-86
2022/01/01 03:37:14;;;;;;;18.58;10.07;;;14.50;99.90;;;;;;5074089;28;20025;-86
2022/01/01 03:39:39;;;;;;;23.05;9.32;;;14.60;99.90;;;;;;5073154;28;20048;-86
2022/01/01 03:42:05;;;;;;;20.83;9.68;;;14.50;99.90;;;;;;5085219;28;20070;-87
2022/01/01 03:44:31;;;;;;;18.77;9.95;;;14.50;99.90;;;;;;5085307;28;20103;-87
2022/01/01 03:47:07;;;;;;;21.25;9.82;;;14.50;99.90;;;;;;5073706;28;20044;-87
2022/01/01 03:49:34;;;;;;;20.13;10.23;;;14.50;99.90;;;;;;5073748;28;20375;-87
2022/01/01 03:52:00;;;;;;;24.92;10.00;;;14.50;99.90;;;;;;5073132;28;20032;-86
2022/01/01 03:54:26;;;;;;;18.63;10.02;;;14.50;99.90;;;;;;5073466;28;20358;-87
2022/01/01 03:56:51;;;;;;;22.02;10.82;;;14.50;99.90;;;;;;5074059;28;20034;-87
2022/01/01 03:59:20;;;;;;;20.20;10.40;;;14.50;99.90;;;;;;5093753;28;20406;-87
2022/01/01 04:01:46;;;;;;;22.42;11.35;;;14.50;99.90;;;;;;5093738;28;20487;-87
2022/01/01 04:04:11;;;;;;;26.17;10.88;;;14.50;99.90;;;;;;5092807;28;20028;-86
2022/01/01 04:06:37;;;;;;;22.00;11.55;;;14.50;99.90;;;;;;5093075;28;20081;-87
2022/01/01 04:09:03;;;;;;;22.77;10.95;;;14.50;99.90;;;;;;5093113;28;20032;-87
2022/01/01 04:11:29;;;;;;;27.60;10.27;;;14.50;99.90;;;;;;5093279;28;20476;-87
2022/01/01 04:13:54;;;;;;;19.33;10.02;;;14.50;99.90;;;;;;5093140;28;20020;-87
2022/01/01 04:16:22;;;;;;;29.52;11.90;;;14.50;99.90;;;;;;5086629;28;20037;-87
2022/01/01 04:18:48;;;;;;;22.20;11.55;;;14.40;99.90;;;;;;5073476;28;20027;-87
2022/01/01 04:21:15;;;;;;;22.85;11.55;;;14.50;99.90;;;;;;5072770;28;20036;-87
2022/01/01 04:23:42;;;;;;;19.52;11.18;;;14.50;99.90;;;;;;5073371;28;20020;-87
2022/01/01 04:26:08;;;;;;;24.58;12.23;;;14.40;99.90;;;;;;5073509;28;20032;-87
2022/01/01 04:28:36;;;;;;;24.45;12.75;;;14.40;99.90;;;;;;5073408;28;20032;-87
2022/01/01 04:31:02;;;;;;;24.88;12.02;;;14.50;99.90;;;;;;5072943;28;20068;-87
2022/01/01 04:33:29;;;;;;;25.83;12.02;;;14.50;99.90;;;;;;5072322;28;20063;-87
2022/01/01 04:35:56;;;;;;;20.25;11.35;;;14.60;99.90;;;;;;5073405;28;20492;-87
2022/01/01 04:38:45;;;;;;;30.73;12.15;;;14.60;99.90;;;;;;5073424;28;20066;-87
2022/01/01 04:41:12;;;;;;;20.92;10.50;;;14.50;99.90;;;;;;5080124;28;20429;-87
2022/01/01 04:43:40;;;;;;;21.27;11.55;;;14.60;99.90;;;;;;5093232;28;20033;-86
2022/01/01 04:46:07;;;;;;;26.50;12.00;;;14.50;99.90;;;;;;5074326;28;20153;-87
2022/01/01 04:48:37;;;;;;;20.45;11.32;;;14.50;99.90;;;;;;5073213;28;20017;-87
2022/01/01 04:51:06;;;;;;;26.15;11.32;;;14.50;99.90;;;;;;5076914;28;20040;-86
2022/01/01 04:53:39;;;;;;;21.92;10.73;;;14.50;99.90;;;;;;5093511;28;20027;-87
2022/01/01 04:56:07;;;;;;;;;;;14.50;99.90;;;;;;5092888;28;20492;-86
2022/01/01 04:58:35;;;;;;;27.55;11.52;;;14.50;99.90;;;;;;5092950;28;20375;-86
2022/01/01 05:01:01;;;;;;;25.27;10.70;;;14.50;99.90;;;;;;5093190;28;20066;-85
2022/01/01 05:03:26;;;;;;;23.88;11.07;;;14.50;99.90;;;;;;5092924;28;20032;-87
2022/01/01 05:05:52;;;;;;;18.92;10.93;;;14.50;99.90;;;;;;5093257;28;20032;-87
2022/01/01 05:08:18;;;;;;;24.02;10.60;;;14.60;99.90;;;;;;5094958;28;20032;-87
2022/01/01 05:10:43;;;;;;;18.55;10.23;;;14.50;99.90;;;;;;5097047;28;20040;-87
2022/01/01 05:13:10;;;;;;;18.73;9.68;;;14.50;99.90;;;;;;5096296;28;20119;-87
2022/01/01 05:15:37;;;;;;;21.98;9.93;;;14.50;99.90;;;;;;5083700;28;20472;-87
2022/01/01 05:18:03;;;;;;;22.83;9.70;;;14.40;99.90;;;;;;5076944;28;20032;-87
2022/01/01 05:20:28;;;;;;;21.27;8.40;;;14.40;99.90;;;;;;5087217;28;20035;-87
2022/01/01 05:22:54;;;;;;;21.48;9.07;;;14.40;99.90;;;;;;5096923;28;20023;-87
2022/01/01 05:25:21;;;;;;;21.77;9.45;;;14.40;99.90;;;;;;5094568;28;20032;-87
2022/01/01 05:27:47;;;;;;;16.85;8.10;;;14.40;99.90;;;;;;5096659;28;20110;-87
2022/01/01 05:30:13;;;;;;;21.42;8.75;;;14.30;99.90;;;;;;5096685;28;20058;-86
2022/01/01 05:32:40;;;;;;;18.38;8.00;;;14.40;99.90;;;;;;5096983;28;20024;-87
2022/01/01 05:35:06;;;;;;;16.67;7.35;;;14.40;99.90;;;;;;5096709;28;20043;-86
2022/01/01 05:37:33;;;;;;;16.50;8.10;;;14.40;99.90;;;;;;5096815;28;20468;-87
2022/01/01 05:39:59;;;;;;;17.63;8.07;;;14.40;99.90;;;;;;5096407;28;20062;-86
2022/01/01 05:42:24;;;;;;;19.08;8.00;;;14.40;99.90;;;;;;5094849;28;20028;-87
2022/01/01 05:44:50;;;;;;;15.02;7.00;;;14.40;99.90;;;;;;5096021;28;20028;-87
2022/01/01 05:47:17;;;;;;;17.90;7.22;;;14.40;99.90;;;;;;5096535;28;20031;-85
2022/01/01 05:49:42;;;;;;;14.98;6.78;;;14.40;99.90;;;;;;5096484;28;20032;-87
2022/01/01 05:52:08;;;;;;;13.23;5.90;;;14.30;99.90;;;;;;5096280;28;20050;-86
2022/01/01 05:54:36;;;;;;;14.32;6.20;;;14.40;99.90;;;;;;5096563;28;20020;-87
2022/01/01 05:57:02;;;;;;;14.38;6.43;;;14.30;99.90;;;;;;5085292;28;20036;-86
2022/01/01 05:59:28;;;;;;;15.50;5.72;;;14.30;99.90;;;;;;5076056;28;20024;-86
2022/01/01 06:01:54;;;;;;;16.50;5.75;;;14.40;99.90;;;;;;5090724;28;20071;-86
2022/01/01 06:04:20;;;;;;;13.60;6.18;;;14.30;99.90;;;;;;5094331;28;20062;-86
2022/01/01 06:06:46;;;;;;;13.63;5.47;;;14.30;99.90;;;;;;5095776;28;20028;-87
2022/01/01 06:09:12;;;;;;;11.60;5.90;;;14.30;99.90;;;;;;5096069;28;20105;-85
2022/01/01 06:11:37;;;;;;;13.55;5.35;;;14.30;99.90;;;;;;5095648;28;20040;-86
2022/01/01 06:14:03;;;;;;;14.48;5.75;;;14.40;99.90;;;;;;5094663;28;20028;-85
2022/01/01 06:16:29;;;;;;;11.93;6.07;;;14.30;99.90;;;;;;5076227;28;20404;-87
2022/01/01 06:18:54;;;;;;;14.90;5.65;;;14.30;99.90;;;;;;5074619;28;20029;-82
2022/01/01 06:21:20;;;;;;;14.50;5.90;;;14.20;99.90;;;;;;5084115;28;20024;-87
2022/01/01 06:23:47;;;;;;;13.63;5.78;;;14.30;99.90;;;;;;5095085;28;20024;-84
2022/01/01 06:26:15;;;;;;;12.88;5.60;;;14.30;99.90;;;;;;5085998;28;20346;-86
2022/01/01 06:28:41;;;;;;;12.38;5.28;;;14.30;99.90;;;;;;5075386;28;20035;-85
2022/01/01 06:31:07;;;;;;;10.38;5.22;;;14.30;99.90;;;;;;5074985;28;20435;-87
2022/01/01 06:33:33;;;;;;;13.30;5.32;;;14.30;99.90;;;;;;5087348;28;20024;-85
2022/01/01 06:35:59;;;;;;;20.30;6.18;;;14.20;99.90;;;;;;5092480;28;20081;-85
2022/01/01 06:38:25;;;;;;;15.50;5.22;;;14.10;99.90;;;;;;5075125;28;20020;-87
2022/01/01 06:40:52;;;;;;;14.75;4.82;;;14.00;99.90;;;;;;5074959;28;20039;-86
2022/01/01 06:43:21;;;;;;;16.58;5.05;;;14.00;99.90;;;;;;5090654;28;20362;-85
2022/01/01 06:45:49;;;;;;;11.40;4.97;;;14.00;99.90;;;;;;5081828;28;20085;-86
2022/01/01 06:48:15;;;;;;;17.45;5.25;;;13.90;99.90;;;;;;5074777;28;20021;-87
2022/01/01 06:50:41;;;;;;;14.80;5.35;;;13.90;99.90;;;;;;5074874;28;20029;-86
2022/01/01 06:53:07;;;;;;;13.10;5.18;;;13.90;99.90;;;;;;5074693;28;20061;-87
2022/01/01 06:55:34;;;;;;;12.20;5.13;;;13.90;99.90;;;;;;5078146;28;20487;-87
2022/01/01 06:58:01;;;;;;;14.30;5.07;;;13.80;99.90;;;;;;5094779;28;20505;-87
2022/01/01 07:00:27;;;;;;;12.23;5.43;;;13.80;99.90;;;;;;5094879;28;20460;-86
2022/01/01 07:02:54;;;;;;;12.73;5.85;;;13.80;99.90;;;;;;5095159;28;20460;-83
2022/01/01 07:05:20;;;;;;;16.55;5.13;;;13.80;99.90;;;;;;5095080;28;20039;-87
2022/01/01 07:07:46;;;;;;;18.55;5.50;;;13.80;99.90;;;;;;5091956;28;20032;-87
2022/01/01 07:10:12;;;;;;;11.90;5.00;;;13.90;99.90;;;;;;5085197;28;20036;-87
2022/01/01 07:12:40;;;;;;;14.40;5.45;;;13.80;99.90;;;;;;5072995;28;20020;-87
2022/01/01 07:15:07;;;;;;;12.55;5.22;;;13.80;99.90;;;;;;5087820;28;20059;-84
2022/01/01 07:17:33;;;;;;;14.40;5.13;;;13.80;99.90;;;;;;5094864;28;20410;-87
2022/01/01 07:19:59;;;;;;;13.88;5.60;;;13.80;99.90;;;;;;5080518;28;20032;-86
2022/01/01 07:22:24;;;;;;;12.10;4.70;;;13.70;99.90;;;;;;5090865;28;20815;-86
2022/01/01 07:24:50;;;;;;;15.02;5.10;;;13.70;99.90;;;;;;5094248;28;20024;-85
2022/01/01 07:27:17;;;;;;;15.80;5.45;;;13.60;99.90;;;;;;5083110;28;20025;-85
2022/01/01 07:29:45;;;;;;;10.32;5.68;;;13.60;99.90;;;;;;5073516;28;20094;-83
2022/01/01 07:32:11;;;;;;;14.82;5.70;;;13.70;99.90;;;;;;5074101;28;20089;-84
2022/01/01 07:34:36;;;;;;;15.18;5.45;;;13.60;99.90;;;;;;5072603;28;20020;-84
2022/01/01 07:37:02;;;;;;;18.25;5.70;;;13.60;99.90;;;;;;5072351;28;20036;-83
2022/01/01 07:39:28;;;;;;;13.82;4.72;;;13.60;99.90;;;;;;5073330;28;20411;-82
2022/01/01 07:41:54;;;;;;;16.55;6.38;;;13.50;99.90;;;;;;5073668;28;20020;-84
2022/01/01 07:44:20;;;;;;;15.18;5.63;;;13.60;99.90;;;;;;5092415;28;20098;-84
2022/01/01 07:46:50;;;;;;;12.60;6.32;;;13.50;99.90;;;;;;5093652;28;20071;-85
2022/01/01 07:49:16;;;;;;;12.88;5.55;;;13.50;99.90;;;;;;5093669;28;20399;-84
2022/01/01 07:51:43;;;;;;;13.60;6.38;;;13.60;99.90;;;;;;5092392;28;20535;-84
2022/01/01 07:54:08;;;;;;;13.48;6.03;;;13.60;99.90;;;;;;5093244;28;20384;-83
2022/01/01 07:56:34;;;;;;;17.48;5.97;;;13.60;99.90;;;;;;5093687;28;20028;-84
2022/01/01 07:59:00;;;;;;;11.13;5.78;;;13.60;99.90;;;;;;5093569;28;20020;-85
2022/01/01 08:01:25;;;;;;;10.55;5.15;;;13.70;99.90;;;;;;5093763;28;20028;-85
2022/01/01 08:03:51;;;;;;;10.75;6.03;;;13.60;99.90;;;;;;5093947;28;20040;-87
2022/01/01 08:06:17;;;;;;;11.60;5.30;;;13.60;99.90;;;;;;5093695;28;20461;-79
2022/01/01 08:08:43;;;;;;;12.35;5.78;;;13.60;99.90;;;;;;5093045;28;20031;-79
2022/01/01 08:11:08;;;;;;;15.73;6.28;;;13.60;99.90;;;;;;5092464;28;20031;-78
2022/01/01 08:13:35;;;;;;;19.13;6.22;;;13.60;99.90;;;;;;5090525;28;20020;-79
2022/01/01 08:16:02;;;;;;;13.10;6.05;;;13.60;99.90;;;;;;5092472;28;20039;-80
2022/01/01 08:18:29;;;;;;;11.55;5.45;;;13.60;99.90;;;;;;5071672;28;20552;-80
2022/01/01 08:20:56;;;;;;;12.15;5.75;;;13.60;99.90;;;;;;5083958;28;20487;-80
2022/01/01 08:23:22;;;;;;;15.80;5.35;;;13.60;99.90;;;;;;5092733;28;20479;-80
2022/01/01 08:25:48;;;;;;;10.40;5.97;;;13.60;99.90;;;;;;5093325;28;20052;-79
2022/01/01 08:28:14;;;;;;;17.83;6.80;;;13.60;99.90;;;;;;5092848;28;20031;-79
2022/01/01 08:30:39;;;;;;;17.13;7.03;;;13.60;99.90;;;;;;5093000;28;20125;-79
2022/01/01 08:33:05;;;;;;;15.23;5.93;;;13.70;99.90;;;;;;5092214;28;20024;-78
2022/01/01 08:35:32;;;;;;;17.67;6.10;;;13.70;99.90;;;;;;5092954;28;20043;-79
2022/01/01 08:38:00;;;;;;;8.45;5.05;;;13.70;99.90;;;;;;5078321;28;20049;-79
2022/01/01 08:40:27;;;;;;;11.52;5.97;;;13.70;99.90;;;;;;5072701;28;20025;-79
2022/01/01 08:42:54;;;;;;;13.82;5.72;;;13.70;99.90;;;;;;5074830;28;20499;-79
2022/01/01 08:45:20;;;;;;;10.23;5.30;;;13.60;99.90;;;;;;5082203;28;20101;-80
2022/01/01 08:47:45;;;;;;;10.18;5.10;;;13.60;99.90;;;;;;5088517;28;20016;-79
2022/01/01 08:50:11;;;;;;;11.73;5.82;;;13.60;99.90;;;;;;5093713;28;20089;-81
2022/01/01 08:52:38;;;;;;;12.82;6.55;;;13.70;99.90;;;;;;5089737;28;20500;-80
2022/01/01 08:55:04;;;;;;;14.40;6.05;;;13.70;99.90;;;;;;5075989;28;21933;-76
2022/01/01 08:57:32;;;;;;;13.82;6.13;;;13.80;99.90;;;;;;5095445;28;20062;-80
2022/01/01 08:59:58;;;;;;;10.43;5.70;;;13.80;99.90;;;;;;5096073;28;20474;-80
2022/01/01 09:02:24;;;;;;;10.32;5.93;;;13.80;99.90;;;;;;5096248;28;20029;-79
2022/01/01 09:04:50;;;;;;;11.02;5.80;;;13.90;99.90;;;;;;5095448;28;20189;-80
2022/01/01 09:07:15;;;;;;;16.92;6.25;;;13.90;99.90;;;;;;5096496;28;20361;-79
2022/01/01 09:09:41;;;;;;;12.27;6.25;;;13.80;99.90;;;;;;5095067;28;20028;-80
2022/01/01 09:12:08;;;;;;;11.10;5.82;;;13.80;99.90;;;;;;5075293;28;20400;-79
2022/01/01 09:14:33;;;;;;;13.88;7.18;;;13.90;99.90;;;;;;5085733;28;20028;-78
2022/01/01 09:16:59;;;;;;;12.55;6.20;;;13.70;99.90;;;;;;5093999;28;20035;-80
2022/01/01 09:19:25;;;;;;;13.80;5.40;;;13.80;99.90;;;;;;5086815;28;20028;-79
2022/01/01 09:21:50;;;;;;;10.45;5.60;;;13.80;99.90;;;;;;5084348;28;20021;-79
2022/01/01 09:24:16;;;;;;;12.35;5.30;;;13.80;99.90;;;;;;5084130;28;20483;-80
2022/01/01 09:26:42;;;;;;;12.15;5.55;;;13.80;99.90;;;;;;5084826;28;20028;-79
2022/01/01 09:29:10;;;;;;;8.40;5.15;;;13.80;99.90;;;;;;5086435;28;20092;-79
2022/01/01 09:31:40;;;;;;;13.30;5.45;;;13.80;99.90;;;;;;5082473;28;20609;-79
2022/01/01 09:34:06;;;;;;;11.05;5.05;;;13.80;99.90;;;;;;5084174;28;20026;-80
2022/01/01 09:36:33;;;;;;;11.52;5.65;;;13.80;99.90;;;;;;5084098;28;20111;-80
2022/01/01 09:38:59;;;;;;;10.48;5.30;;;13.80;99.90;;;;;;5083481;28;20024;-79
2022/01/01 09:41:24;;;;;;;10.25;5.32;;;13.90;99.90;;;;;;5082138;28;20028;-79
2022/01/01 09:43:54;;;;;;;9.85;5.00;;;13.90;99.90;;;;;;5073954;28;20062;-80
2022/01/01 09:46:19;;;;;;;12.63;5.43;;;13.90;99.90;;;;;;5074797;28;20025;-79
2022/01/01 09:48:46;;;;;;;12.13;5.60;;;13.80;99.90;;;;;;5081765;28;20070;-80
2022/01/01 09:51:12;;;;;;;16.30;5.95;;;13.90;99.90;;;;;;5094707;28;20085;-79
2022/01/01 09:53:38;;;;;;;8.68;5.45;;;13.80;99.90;;;;;;5094640;28;20044;-80
2022/01/01 09:56:04;;;;;;;14.45;6.05;;;13.90;99.90;;;;;;5094535;28;20066;-79
2022/01/01 09:58:33;;;;;;;10.45;5.40;;;13.80;99.90;;;;;;5094705;28;20074;-79
2022/01/01 10:01:00;;;;;;;11.77;5.65;;;13.90;99.90;;;;;;5094169;28;20020;-80
2022/01/01 10:03:40;;;;;;;12.27;5.60;;;13.90;99.90;;;;;;5092379;28;20035;-80
2022/01/01 10:06:14;;;;;;;11.98;5.43;;;13.90;99.90;;;;;;5081749;28;20039;-80
2022/01/01 10:08:41;;;;;;;12.43;6.07;;;13.90;99.90;;;;;;5076581;28;20060;-79
2022/01/01 10:11:08;;;;;;;11.18;5.20;;;13.90;99.90;;;;;;5073259;28;20100;-80
2022/01/01 10:13:39;;;;;;;10.55;5.32;;;13.90;99.90;;;;;;5082118;28;20477;-79
2022/01/01 10:16:10;;;;;;;9.63;5.82;;;13.90;99.90;;;;;;5094428;28;20028;-79
2022/01/01 10:18:41;;;;;;;13.85;5.60;;;14.00;99.90;;;;;;5093658;28;20476;-80
2022/01/01 10:21:11;;;;;;;13.15;6.00;;;14.00;99.90;;;;;;5074778;28;20087;-80
2022/01/01 10:23:40;;;;;;;13.13;5.63;;;14.00;99.90;;;;;;5074602;28;20063;-80
2022/01/01 10:29:26;;;;;;;10.25;5.65;;;14.10;99.90;;;;;;5090721;28;20070;-80
2022/01/01 10:32:13;;;;;;;9.25;5.57;;;14.10;99.90;;;;;;5093563;28;20568;-80
2022/01/01 10:34:44;;;;;;;11.02;5.78;;;14.00;99.90;;;;;;5094686;28;20085;-80
2022/01/01 10:37:12;;;;;;;9.10;5.60;;;14.10;99.90;;;;;;5093941;28;20024;-79
2022/01/01 10:39:52;;;;;;;12.75;6.10;;;14.10;99.90;;;;;;5092814;28;20376;-79
2022/01/01 10:42:18;;;;;;;10.23;5.60;;;14.10;99.90;;;;;;5094166;28;20103;-78
2022/01/01 10:44:49;;;;;;;11.55;5.75;;;14.10;99.90;;;;;;5078150;28;20031;-79
2022/01/01 10:47:25;;;;;;;8.00;5.70;;;14.10;99.90;;;;;;5078697;28;20071;-79
2022/01/01 10:50:13;;;;;;;6.20;4.90;;;14.10;99.90;;;;;;5082982;28;20069;-79
2022/01/01 10:52:37;;;;;;;8.23;4.90;;;14.20;99.90;;;;;;5079800;28;20036;-79
2022/01/01 10:55:07;;;;;;;12.32;5.28;;;14.20;99.90;;;;;;5079920;28;20085;-79
2022/01/01 10:57:36;;;;;;;10.93;5.22;;;14.20;99.90;;;;;;5085765;28;20074;-78
2022/01/01 11:00:15;;;;;;;10.77;5.35;;;14.20;99.90;;;;;;5076957;28;20078;-79
2022/01/01 11:02:43;;;;;;;7.88;4.60;;;14.20;99.90;;;;;;5079521;28;20527;-78
2022/01/01 11:05:10;;;;;;;7.18;4.22;;;14.30;99.90;;;;;;5077568;28;20546;-79
2022/01/01 11:07:36;;;;;;;8.80;4.70;;;14.40;99.90;;;;;;5083065;28;20036;-79
2022/01/01 11:10:02;;;;;;;10.52;5.05;;;14.40;99.90;;;;;;5085079;28;20434;-79
2022/01/01 11:12:30;;;;;;;8.63;4.55;;;14.50;99.90;;;;;;5089146;28;20016;-78
2022/01/01 11:14:59;;;;;;;8.20;4.40;;;14.50;99.90;;;;;;5088281;28;20039;-78
2022/01/01 11:17:25;;;;;;;9.55;4.60;;;14.50;99.90;;;;;;5083050;28;20016;-78
2022/01/01 11:19:51;;;;;;;7.75;4.78;;;14.50;99.90;;;;;;5078919;28;20388;-78
2022/01/01 11:22:20;;;;;;;7.78;4.65;;;14.50;99.90;;;;;;5082737;28;20574;-79
2022/01/01 11:24:46;;;;;;;9.80;5.70;;;14.50;99.90;;;;;;5085300;28;20563;-79
2022/01/01 11:27:12;;;;;;;10.75;5.10;;;14.50;99.90;;;;;;5079947;28;20099;-79
2022/01/01 11:29:49;;;;;;;5.70;4.45;;;14.50;99.90;;;;;;5087250;28;20103;-79
2022/01/01 11:32:36;;;;;;;10.07;5.65;;;14.50;99.90;;;;;;5083004;28;20106;-78
2022/01/01 11:35:02;;;;;;;10.23;4.72;;;14.50;99.90;;;;;;5067927;28;20120;-79
2022/01/01 11:37:55;;;;;;;9.68;4.38;;;14.60;99.90;;;;;;5081322;28;20484;-81
2022/01/01 11:40:21;;;;;;;8.95;5.55;;;14.60;99.90;;;;;;5081290;28;20380;-81
2022/01/01 11:42:48;;;;;;;10.18;4.53;;;14.60;99.90;;;;;;5076373;28;20024;-85
2022/01/01 11:45:38;;;;;;;5.90;4.70;;;14.70;99.90;;;;;;5074182;28;20029;-85
2022/01/01 11:48:27;;;;;;;8.82;4.30;;;14.80;99.90;;;;;;5085205;28;20426;-82
2022/01/01 11:50:53;;;;;;;5.43;3.70;;;14.70;99.90;;;;;;5080248;28;20484;-84
2022/01/01 11:53:29;;;;;;;8.15;3.40;;;14.80;99.90;;;;;;5083317;28;20020;-80
2022/01/01 11:56:12;;;;;;;4.88;3.50;;;14.90;99.90;;;;;;5082340;28;20095;-83
2022/01/01 11:58:49;;;;;;;7.00;3.47;;;14.90;99.90;;;;;;5080333;28;20024;-81
2022/01/01 12:01:16;;;;;;;6.00;3.50;;;14.90;99.90;;;;;;5086724;28;20548;-80
2022/01/01 12:03:53;;;;;;;4.78;3.42;;;15.00;99.90;;;;;;5091870;28;20063;-80
2022/01/01 12:06:19;;;;;;;10.68;4.20;;;15.00;99.90;;;;;;5092383;28;20103;-80
2022/01/01 12:08:48;;;;;;;9.27;4.20;;;14.90;99.90;;;;;;5092592;28;20028;-80
2022/01/01 12:11:30;;;;;;;6.07;3.72;;;14.90;99.90;;;;;;5075876;28;20131;-80
2022/01/01 12:14:00;;;;;;;9.45;3.55;;;14.80;99.90;;;;;;5071784;28;20020;-80
2022/01/01 12:16:26;;;;;;;4.72;3.45;;;14.90;99.90;;;;;;5070063;28;20070;-80
2022/01/01 12:19:04;;;;;;;6.80;4.00;;;15.00;99.90;;;;;;5079118;28;20098;-80
2022/01/01 12:21:38;;;;;;;5.15;3.17;;;14.90;99.90;;;;;;5090851;28;20482;-80
2022/01/01 12:24:08;;;;;;;8.07;3.45;;;15.00;99.90;;;;;;5078228;28;20536;-81
2022/01/01 12:26:35;;;;;;;5.40;3.13;;;15.00;99.90;;;;;;5090458;28;20133;-81
2022/01/01 12:29:07;;;;;;;7.55;3.22;;;15.10;99.90;;;;;;5093409;28;20024;-81
2022/01/01 12:31:32;;;;;;;6.50;3.08;;;15.10;99.90;;;;;;5093614;28;20039;-80
2022/01/01 12:34:08;;;;;;;6.43;2.92;;;15.10;99.90;;;;;;5082759;28;20024;-80
2022/01/01 12:36:35;;;;;;;5.13;3.22;;;15.20;99.90;;;;;;5081461;28;20480;-80
2022/01/01 12:39:05;;;;;;;4.32;2.70;;;15.20;99.90;;;;;;5080848;28;20029;-80
2022/01/01 12:41:34;;;;;;;8.85;3.53;;;15.20;99.90;;;;;;5087326;28;20024;-80
2022/01/01 12:44:02;;;;;;;5.82;3.03;;;15.30;99.90;;;;;;5087366;28;20020;-80
2022/01/01 12:46:34;;;;;;;3.85;2.70;;;15.30;99.90;;;;;;5081120;28;20023;-80